Bookmark and Share
Track history (hours):
 

Celandine

Last reported at 2014-Apr-24 05:33 UTC. Time now 2014-Apr-24 06:20 UTC.
Position N 51°28' E 000°15'.

Length 162 m; draft 6.2 m.

Type: Ship (hazmat cat A). MMSI: 205476000.

NotesDate/timePositionNaut miles runAvg speedWind from/ knotsBaromVisibWave heightAir tempDewpointWater temp
2014-Apr-24 05:33N 51°28' E 000°15'0 0.0
2014-Apr-24 04:33N 51°28' E 000°15'0 0.0
2014-Apr-24 03:33N 51°28' E 000°15'0 0.0
2014-Apr-24 02:33N 51°28' E 000°15'0 0.0
2014-Apr-24 01:33N 51°28' E 000°15'0 0.0
2014-Apr-24 00:33N 51°28' E 000°15'0 0.0
2014-Apr-23 23:33N 51°28' E 000°15'2 1.7
2014-Apr-23 22:33N 51°28' E 000°18'9 8.7
2014-Apr-23 21:33N 51°30' E 000°31'1413.8
2014-Apr-23 20:34N 51°29' E 000°53'1514.6
2014-Apr-23 19:33N 51°29' E 001°17'1515.1
2014-Apr-23 18:34N 51°32' E 001°40'1515.4
2014-Apr-23 17:33N 51°33' E 002°05'1514.6
2014-Apr-23 16:33N 51°29' E 002°28'1615.9
2014-Apr-23 15:33N 51°27' E 002°53'1414.1
2014-Apr-23 14:33N 51°21' E 003°13'0 0.0
2014-Apr-23 13:31N 51°21' E 003°13'0 0.0
2014-Apr-23 12:28N 51°21' E 003°13'0 0.0
2014-Apr-23 11:25N 51°21' E 003°13'0 0.0
2014-Apr-23 10:31N 51°21' E 003°13'0 0.0
2014-Apr-23 09:31N 51°21' E 003°13'0 0.0
2014-Apr-23 08:28N 51°21' E 003°13'0 0.0
2014-Apr-23 07:31N 51°21' E 003°13'0 0.0
2014-Apr-23 06:33N 51°21' E 003°13'1010.4
2014-Apr-23 05:33N 51°25' E 002°58'1616.1
2014-Apr-23 04:33N 51°30' E 002°33'1414.5
2014-Apr-23 03:33N 51°32' E 002°10'1515.0
2014-Apr-23 02:34N 51°31' E 001°46'1615.7
2014-Apr-23 01:33N 51°28' E 001°21'1615.9
2014-Apr-23 00:33N 51°29' E 000°56'1717.1
2014-Apr-22 23:34N 51°30' E 000°28'8 8.3
2014-Apr-22 22:33N 51°28' E 000°15'0 0.1
2014-Apr-22 21:32N 51°28' E 000°15'0 0.0
2014-Apr-22 20:32N 51°28' E 000°15'0 0.0
2014-Apr-22 19:32N 51°28' E 000°15'0 0.0
2014-Apr-22 18:32N 51°28' E 000°15'0 0.0
2014-Apr-22 17:32N 51°28' E 000°15'1 0.8
2014-Apr-22 16:34N 51°28' E 000°16'0 0.0
2014-Apr-22 15:34N 51°28' E 000°16'0 0.0
2014-Apr-22 14:34N 51°28' E 000°16'0 0.0
2014-Apr-22 13:34N 51°28' E 000°16'0 0.0
2014-Apr-22 12:34N 51°28' E 000°16'0 0.0
2014-Apr-22 11:34N 51°28' E 000°16'0 0.0
2014-Apr-22 10:34N 51°28' E 000°16'0 0.0
2014-Apr-22 09:34N 51°28' E 000°16'0 0.0
2014-Apr-22 08:34N 51°28' E 000°16'0 0.0
2014-Apr-22 07:34N 51°28' E 000°16'0 0.0
2014-Apr-22 06:34N 51°28' E 000°16'0 0.0
2014-Apr-22 05:34N 51°28' E 000°16'0 0.0
2014-Apr-22 04:33N 51°28' E 000°16'0 0.0
2014-Apr-22 03:34N 51°28' E 000°16'0 0.0
2014-Apr-22 02:34N 51°28' E 000°16'0 0.0
2014-Apr-22 01:34N 51°28' E 000°16'0 0.0
2014-Apr-22 00:34N 51°28' E 000°16'0 0.0
2014-Apr-21 23:34N 51°28' E 000°16'0 0.0
2014-Apr-21 22:34N 51°28' E 000°16'0 0.0
2014-Apr-21 21:34N 51°28' E 000°16'0 0.0
2014-Apr-21 20:34N 51°28' E 000°16'0 0.0
2014-Apr-21 19:34N 51°28' E 000°16'0 0.0
2014-Apr-21 18:34N 51°28' E 000°16'3 2.9
2014-Apr-21 17:34N 51°27' E 000°20'1312.9
2014-Apr-21 16:34N 51°30' E 000°40'1717.2
2014-Apr-21 15:33N 51°29' E 001°08'1817.6
2014-Apr-21 14:33N 51°30' E 001°37'1716.6
2014-Apr-21 13:33N 51°28' E 002°03'1717.2
2014-Apr-21 12:33N 51°29' E 002°30'1717.5
2014-Apr-21 11:33N 51°26' E 002°58'11 9.9
2014-Apr-21 10:29N 51°21' E 003°13'0 0.0
2014-Apr-21 09:32N 51°21' E 003°13'0 0.0
2014-Apr-21 08:29N 51°21' E 003°13'0 0.0
2014-Apr-21 07:32N 51°21' E 003°13'0 0.0
2014-Apr-21 06:29N 51°21' E 003°13'0 0.0
2014-Apr-21 05:32N 51°21' E 003°13'0 0.0
2014-Apr-21 04:29N 51°21' E 003°13'0 0.0
2014-Apr-21 03:29N 51°21' E 003°13'0 0.0
2014-Apr-21 02:32N 51°21' E 003°13'0 0.0
2014-Apr-21 01:32N 51°21' E 003°13'0 0.0
2014-Apr-21 00:29N 51°21' E 003°13'0 0.0
2014-Apr-20 23:32N 51°21' E 003°13'0 0.0
2014-Apr-20 22:32N 51°21' E 003°13'0 0.0
2014-Apr-20 21:32N 51°21' E 003°13'0 0.0
2014-Apr-20 20:32N 51°21' E 003°13'0 0.0
2014-Apr-20 19:32N 51°21' E 003°13'0 0.0
2014-Apr-20 18:29N 51°21' E 003°13'0 0.0
2014-Apr-20 17:32N 51°21' E 003°13'0 0.0
2014-Apr-20 16:32N 51°21' E 003°13'0 0.0
2014-Apr-20 15:32N 51°21' E 003°13'0 0.0
2014-Apr-20 14:32N 51°21' E 003°13'0 0.0
2014-Apr-20 13:32N 51°21' E 003°13'0 0.0
2014-Apr-20 12:32N 51°21' E 003°13'0 0.0
2014-Apr-20 11:32N 51°21' E 003°13'0 0.0
2014-Apr-20 10:32N 51°21' E 003°13'0 0.0
2014-Apr-20 09:26N 51°21' E 003°13'0 0.0
2014-Apr-20 08:29N 51°21' E 003°13'0 0.0
2014-Apr-20 07:32N 51°21' E 003°13'0 0.0
2014-Apr-20 06:32N 51°21' E 003°13'0 0.0
2014-Apr-20 05:26N 51°21' E 003°13'0 0.0
2014-Apr-20 04:32N 51°21' E 003°13'0 0.0
2014-Apr-20 03:32N 51°21' E 003°13'0 0.0
2014-Apr-20 02:32N 51°21' E 003°13'0 0.0
2014-Apr-20 01:29N 51°21' E 003°13'0 0.0
2014-Apr-20 00:32N 51°21' E 003°13'0 0.0
2014-Apr-19 23:32N 51°21' E 003°13'0 0.0
2014-Apr-19 22:32N 51°21' E 003°13'0 0.0
2014-Apr-19 21:32N 51°21' E 003°13'0 0.0
2014-Apr-19 20:32N 51°21' E 003°13'0 0.0
2014-Apr-19 19:32N 51°21' E 003°13'0 0.0
2014-Apr-19 18:32N 51°21' E 003°13'0 0.0
2014-Apr-19 17:32N 51°21' E 003°13'4 3.7
2014-Apr-19 16:33N 51°23' E 003°09'1616.2
2014-Apr-19 15:33N 51°27' E 002°44'1817.6
2014-Apr-19 14:31N 51°31' E 002°15'1717.3
2014-Apr-19 13:33N 51°31' E 001°48'1616.1
2014-Apr-19 12:34N 51°29' E 001°23'1514.9
2014-Apr-19 11:34N 51°29' E 000°59'1414.5
2014-Apr-19 10:33N 51°30' E 000°36'1110.8
2014-Apr-19 09:34N 51°28' E 000°19'2 2.2
2014-Apr-19 08:33N 51°28' E 000°15'0 0.0
2014-Apr-19 07:33N 51°28' E 000°15'0 0.0
2014-Apr-19 06:33N 51°28' E 000°15'0 0.0
2014-Apr-19 05:33N 51°28' E 000°15'0 0.0
2014-Apr-19 04:33N 51°28' E 000°15'1 1.3
2014-Apr-19 03:33N 51°28' E 000°17'9 8.8
2014-Apr-19 02:33N 51°30' E 000°31'1514.7
2014-Apr-19 01:34N 51°29' E 000°54'1615.9
2014-Apr-19 00:33N 51°29' E 001°20'1515.4
2014-Apr-18 23:33N 51°31' E 001°44'1312.6
2014-Apr-18 22:32N 51°35' E 002°04'1414.3
2014-Apr-18 21:33N 51°28' E 002°23'1414.5
2014-Apr-18 20:33N 51°28' E 002°46'1616.5
2014-Apr-18 19:33N 51°22' E 003°11'2 1.9
2014-Apr-18 18:33N 51°21' E 003°13'0 0.0
2014-Apr-18 17:33N 51°21' E 003°13'0 0.0
2014-Apr-18 16:33N 51°21' E 003°13'0 0.0
2014-Apr-18 15:30N 51°21' E 003°13'0 0.0
2014-Apr-18 14:33N 51°21' E 003°13'0 0.0
2014-Apr-18 13:30N 51°21' E 003°13'0 0.0
2014-Apr-18 12:33N 51°21' E 003°13'7 6.8
2014-Apr-18 11:34N 51°24' E 003°04'1515.5
2014-Apr-18 10:33N 51°29' E 002°40'1413.9
2014-Apr-18 09:33N 51°28' E 002°18'1414.5
2014-Apr-18 08:34N 51°32' E 001°55'1615.8
2014-Apr-18 07:34N 51°29' E 001°31'1717.0
2014-Apr-18 06:34N 51°29' E 001°03'1818.2
2014-Apr-18 05:34N 51°30' E 000°34'1111.2
2014-Apr-18 04:33N 51°27' E 000°17'1 1.4
2014-Apr-18 03:32N 51°28' E 000°15'0 0.0
2014-Apr-18 02:32N 51°28' E 000°15'0 0.0
2014-Apr-18 01:32N 51°28' E 000°15'0 0.0
2014-Apr-18 00:32N 51°28' E 000°15'0 0.0
2014-Apr-17 23:32N 51°28' E 000°15'0 0.2
2014-Apr-17 22:33N 51°28' E 000°15'9 9.4
2014-Apr-17 21:33N 51°30' E 000°30'1515.1
2014-Apr-17 20:34N 51°29' E 000°54'1515.0
2014-Apr-17 19:34N 51°29' E 001°18'1413.9
2014-Apr-17 18:34N 51°30' E 001°40'1413.5
2014-Apr-17 17:33N 51°34' E 002°01'1514.3
2014-Apr-17 16:32N 51°28' E 002°23'1414.0
2014-Apr-17 15:33N 51°28' E 002°45'1514.6
2014-Apr-17 14:33N 51°24' E 003°07'5 4.5
2014-Apr-17 13:29N 51°21' E 003°13'0 0.0
2014-Apr-17 12:26N 51°21' E 003°13'0 0.0
2014-Apr-17 11:32N 51°21' E 003°13'0 0.0
2014-Apr-17 10:32N 51°21' E 003°13'0 0.0
2014-Apr-17 09:32N 51°21' E 003°13'0 0.0
2014-Apr-17 08:29N 51°21' E 003°13'0 0.0
2014-Apr-17 07:33N 51°21' E 003°13'1110.8
2014-Apr-17 06:33N 51°25' E 002°57'1615.8
2014-Apr-17 05:33N 51°30' E 002°33'1615.7
2014-Apr-17 04:33N 51°31' E 002°08'1716.8
2014-Apr-17 03:33N 51°31' E 001°41'1817.8
2014-Apr-17 02:33N 51°29' E 001°13'1716.6
2014-Apr-17 01:33N 51°29' E 000°46'1413.7
2014-Apr-17 00:34N 51°27' E 000°24'6 5.6
2014-Apr-16 23:33N 51°28' E 000°16'0 0.4
2014-Apr-16 22:32N 51°28' E 000°15'0 0.0
2014-Apr-16 21:32N 51°28' E 000°15'0 0.0
2014-Apr-16 20:32N 51°28' E 000°15'0 0.0
2014-Apr-16 19:32N 51°28' E 000°15'0 0.0
2014-Apr-16 18:32N 51°28' E 000°15'0 0.0
2014-Apr-16 17:32N 51°28' E 000°15'1 0.7
2014-Apr-16 16:33N 51°28' E 000°16'8 8.0
2014-Apr-16 15:33N 51°30' E 000°28'1312.9
2014-Apr-16 14:34N 51°29' E 000°49'1515.3
2014-Apr-16 13:34N 51°29' E 001°14'1616.0
2014-Apr-16 12:34N 51°31' E 001°39'1414.1
2014-Apr-16 11:33N 51°35' E 002°01'1110.6
2014-Apr-16 10:33N 51°29' E 002°15'1414.0
2014-Apr-16 09:33N 51°29' E 002°37'1716.9
2014-Apr-16 08:33N 51°25' E 003°03'7 7.2
2014-Apr-16 07:33N 51°21' E 003°13'0 0.0
2014-Apr-16 06:31N 51°21' E 003°13'0 0.0
2014-Apr-16 05:34N 51°21' E 003°13'0 0.0
2014-Apr-16 04:34N 51°21' E 003°13'0 0.0
2014-Apr-16 03:34N 51°21' E 003°13'0 0.0
2014-Apr-16 02:25N 51°21' E 003°13'0 0.0
2014-Apr-16 01:34N 51°21' E 003°13'0 0.0
2014-Apr-16 00:34N 51°21' E 003°13'0 0.0
2014-Apr-15 23:34N 51°21' E 003°13'0 0.0
2014-Apr-15 22:30N 51°21' E 003°13'0 0.0
2014-Apr-15 21:34N 51°21' E 003°13'0 0.0
2014-Apr-15 20:34N 51°21' E 003°13'7 6.7
2014-Apr-15 19:33N 51°24' E 003°04'1515.1
2014-Apr-15 18:33N 51°28' E 002°40'1615.3
2014-Apr-15 17:33N 51°31' E 002°16'1515.7
2014-Apr-15 16:33N 51°33' E 001°51'1717.1
2014-Apr-15 15:33N 51°29' E 001°25'1818.4
2014-Apr-15 14:33N 51°29' E 000°55'16 8.0
2014-Apr-15 12:34N 51°30' E 000°29'7 7.4
2014-Apr-15 11:34N 51°28' E 000°18'2 1.7
2014-Apr-15 10:31N 51°28' E 000°15'0 0.0
2014-Apr-15 09:31N 51°28' E 000°15'0 0.0
2014-Apr-15 08:31N 51°28' E 000°15'0 0.0
2014-Apr-15 06:31N 51°28' E 000°15'0 0.0
2014-Apr-15 05:31N 51°28' E 000°15'2 0.8
2014-Apr-15 03:34N 51°28' E 000°18'9 8.9
2014-Apr-15 02:34N 51°30' E 000°32'1312.7
2014-Apr-15 01:34N 51°30' E 000°52'1413.9
2014-Apr-15 00:34N 51°29' E 001°14'1414.4
2014-Apr-14 23:34N 51°30' E 001°37'1514.9
2014-Apr-14 22:34N 51°30' E 002°01'1615.5
2014-Apr-14 21:33N 51°29' E 002°26'1515.4
2014-Apr-14 20:34N 51°27' E 002°51'1514.8
2014-Apr-14 19:34N 51°21' E 003°12'0 0.4
2014-Apr-14 18:31N 51°21' E 003°13'0 0.0
2014-Apr-14 15:31N 51°21' E 003°13'0 0.0
2014-Apr-14 14:31N 51°21' E 003°13'0 0.0
2014-Apr-14 13:31N 51°21' E 003°13'0 0.0
2014-Apr-14 11:31N 51°21' E 003°13'0 0.0
2014-Apr-14 10:31N 51°21' E 003°13'0 0.0
2014-Apr-14 09:33N 51°21' E 003°13'1010.0
2014-Apr-14 08:33N 51°27' E 003°01'1716.5
2014-Apr-14 07:33N 51°43' E 003°09'  

Dump ship's entire track history

sailing weather and tide predictions

Celandine — ONDN — position and weather